Terminal Aerodrome Forecast
Issued by NWS Mt. Holly, NJ

Home | Current Version | Previous Version | Text Only | Print | Product List | Glossary On
Versions: 1 2 3 4 5 6 7 8 9 10 11 12 13 14 15 16 17 18 19 20 21 22 23 24 25 26 27 28 29 30 31 32 33 34
750
FTUS41 KPHI 020808 AAA
TAFPHL
TAF AMD
KPHL 020808Z 0208/0312 06005KT P6SM OVC006
      TEMPO 0208/0210 5SM -DZ BR OVC004
     FM021000 10005KT 4SM -SHRA BR OVC004
     FM021500 14005KT 6SM BR OVC007
     FM021900 17007KT P6SM OVC015
     FM030000 14005KT 5SM -SHRA BR OVC007
     FM030300 08005KT 3SM SHRA BR OVC004=

USA.gov is the U.S. government's official web portal to all federal, state and local government web resources and services.